Time,TemperatureF,DewpointF,PressureIn,WindDirection,WindDirectionDegrees,WindSpeedMPH,WindSpeedGustMPH,Humidity,HourlyPrecipIn,Conditions,Clouds,dailyrainin,SoftwareType,DateUTC
2013-09-06 00:00:00,62.3,58.4,29.39,SW,225,0.0,0.0,87,0.00,,,0.00,VWS V14.00,2013-09-06 04:00:00,
2013-09-06 00:30:00,62.0,57.1,29.38,SW,225,0.0,0.0,84,0.00,,,0.00,VWS V14.00,2013-09-06 04:30:00,
2013-09-06 01:00:00,61.6,57.0,29.39,SW,225,0.0,0.0,85,0.00,,,0.00,VWS V14.00,2013-09-06 05:00:00,
2013-09-06 01:30:00,60.9,57.3,29.38,SW,225,0.0,0.0,88,0.00,,,0.00,VWS V14.00,2013-09-06 05:30:00,
2013-09-06 02:00:00,60.1,55.3,29.38,SW,225,0.0,0.0,84,0.00,,,0.00,VWS V14.00,2013-09-06 06:00:00,
2013-09-06 02:30:00,60.0,52.1,29.38,SW,225,0.0,0.0,75,0.00,,,0.00,VWS V14.00,2013-09-06 06:30:00,
2013-09-06 03:00:00,60.4,52.1,29.39,SW,225,0.0,0.0,74,0.00,,,0.00,VWS V14.00,2013-09-06 07:00:00,
2013-09-06 03:30:00,60.1,53.2,29.39,SW,225,0.0,0.0,78,0.00,,,0.00,VWS V14.00,2013-09-06 07:30:00,
2013-09-06 04:00:00,59.9,55.4,29.39,SW,225,0.0,0.0,85,0.00,,,0.00,VWS V14.00,2013-09-06 08:00:00,
2013-09-06 04:30:00,59.1,53.3,29.39,SW,225,0.0,0.0,81,0.00,,,0.00,VWS V14.00,2013-09-06 08:30:00,
2013-09-06 05:00:00,59.0,52.5,29.40,SW,225,0.0,0.0,79,0.00,,,0.00,VWS V14.00,2013-09-06 09:00:00,
2013-09-06 05:30:00,58.6,52.5,29.40,SW,225,0.0,0.0,80,0.00,,,0.00,VWS V14.00,2013-09-06 09:30:00,
2013-09-06 06:00:00,59.0,54.2,29.41,SW,225,0.0,0.0,84,0.00,,,0.00,VWS V14.00,2013-09-06 10:00:00,
2013-09-06 06:30:00,58.8,53.7,29.41,SW,225,0.0,0.0,83,0.00,,,0.00,VWS V14.00,2013-09-06 10:30:00,
2013-09-06 07:00:00,58.2,53.4,29.42,SW,225,0.0,0.0,84,0.00,,,0.00,VWS V14.00,2013-09-06 11:00:00,
2013-09-06 07:30:00,57.9,54.1,29.43,SW,225,0.0,0.0,87,0.00,,,0.00,VWS V14.00,2013-09-06 11:30:00,
2013-09-06 08:00:00,57.8,53.7,29.44,SW,225,0.0,0.0,86,0.00,,,0.00,VWS V14.00,2013-09-06 12:00:00,
2013-09-06 08:30:00,59.0,54.8,29.44,SW,225,0.0,0.0,86,0.00,,,0.00,VWS V14.00,2013-09-06 12:30:00,
2013-09-06 09:00:00,61.3,55.8,29.44,SW,225,0.0,0.0,82,0.00,,,0.00,VWS V14.00,2013-09-06 13:00:00,
2013-09-06 09:30:00,62.2,57.6,29.43,SW,225,0.0,0.0,85,0.00,,,0.00,VWS V14.00,2013-09-06 13:30:00,
2013-09-06 10:00:00,63.5,57.6,29.43,SW,225,0.0,0.0,81,0.00,,,0.00,VWS V14.00,2013-09-06 14:00:00,
2013-09-06 10:30:00,66.1,61.1,29.43,SW,225,0.0,0.0,84,0.00,,,0.00,VWS V14.00,2013-09-06 14:30:00,
2013-09-06 11:00:00,68.0,62.3,29.44,NNE,22,0.0,1.0,82,0.00,,,0.00,VWS V14.00,2013-09-06 15:00:00,
2013-09-06 11:30:00,70.2,63.0,29.42,North,0,1.0,3.0,78,0.00,,,0.00,VWS V14.00,2013-09-06 15:30:00,
2013-09-06 12:00:00,71.1,63.2,29.41,North,0,1.0,3.0,76,0.00,,,0.00,VWS V14.00,2013-09-06 16:00:00,
2013-09-06 12:30:00,72.3,62.4,29.39,North,0,1.0,4.0,71,0.00,,,0.00,VWS V14.00,2013-09-06 16:30:00,
2013-09-06 13:00:00,73.1,63.2,29.37,NE,45,1.0,4.0,71,0.00,,,0.00,VWS V14.00,2013-09-06 17:00:00,
2013-09-06 13:30:00,75.5,63.8,29.36,NE,45,1.0,3.0,67,0.00,,,0.00,VWS V14.00,2013-09-06 17:30:00,
2013-09-06 14:00:00,76.6,62.2,29.34,North,0,1.0,3.0,61,0.00,,,0.00,VWS V14.00,2013-09-06 18:00:00,
2013-09-06 14:30:00,76.9,63.4,29.33,NW,315,1.0,2.0,63,0.00,,,0.00,VWS V14.00,2013-09-06 18:30:00,
2013-09-06 15:00:00,78.1,62.1,29.32,North,0,1.0,2.0,58,0.00,,,0.00,VWS V14.00,2013-09-06 19:00:00,
2013-09-06 15:30:00,79.8,62.2,29.31,NW,315,1.0,3.0,55,0.00,,,0.00,VWS V14.00,2013-09-06 19:30:00,
2013-09-06 16:00:00,77.5,63.5,29.29,NNW,338,1.0,2.0,62,0.00,,,0.00,VWS V14.00,2013-09-06 20:00:00,
2013-09-06 16:30:00,80.3,63.7,29.28,NE,45,1.0,3.0,57,0.00,,,0.00,VWS V14.00,2013-09-06 20:30:00,
2013-09-06 17:00:00,78.6,63.6,29.27,NW,315,0.0,2.0,60,0.00,,,0.00,VWS V14.00,2013-09-06 21:00:00,
2013-09-06 17:30:00,76.6,62.6,29.28,NW,315,0.0,0.0,62,0.00,,,0.00,VWS V14.00,2013-09-06 21:30:00,
2013-09-06 18:00:00,78.5,64.9,29.28,East,90,0.0,2.0,63,0.00,,,0.00,VWS V14.00,2013-09-06 22:00:00,
2013-09-06 18:30:00,77.6,64.5,29.28,SW,225,1.0,5.0,64,0.00,,,0.00,VWS V14.00,2013-09-06 22:30:00,
2013-09-06 19:00:00,73.1,63.5,29.27,SW,225,1.0,5.0,72,0.00,,,0.00,VWS V14.00,2013-09-06 23:00:00,
2013-09-06 19:30:00,69.6,62.1,29.27,East,90,0.0,3.0,77,0.00,,,0.00,VWS V14.00,2013-09-06 23:30:00,
2013-09-06 20:00:00,68.0,60.9,29.28,ESE,112,0.0,7.0,78,0.00,,,0.00,VWS V14.00,2013-09-07 00:00:00,
2013-09-06 20:30:00,66.9,60.5,29.28,ESE,112,0.0,0.0,80,0.00,,,0.00,VWS V14.00,2013-09-07 00:30:00,
2013-09-06 21:00:00,66.5,60.8,29.30,ESE,112,0.0,0.0,82,0.00,,,0.00,VWS V14.00,2013-09-07 01:00:00,
2013-09-06 21:30:00,65.7,60.4,29.31,ESE,112,0.0,0.0,83,0.00,,,0.00,VWS V14.00,2013-09-07 01:30:00,
2013-09-06 22:00:00,65.4,60.5,29.32,ESE,112,0.0,0.0,84,0.00,,,0.00,VWS V14.00,2013-09-07 02:00:00,
2013-09-06 22:30:00,65.2,60.6,29.32,ESE,112,0.0,0.0,85,0.00,,,0.00,VWS V14.00,2013-09-07 02:30:00,
2013-09-06 23:00:00,64.6,60.3,29.32,ESE,112,0.0,0.0,86,0.00,,,0.00,VWS V14.00,2013-09-07 03:00:00,
2013-09-06 23:30:00,64.1,60.2,29.33,ESE,112,0.0,0.0,87,0.00,,,0.00,VWS V14.00,2013-09-07 03:30:00,